Time;durP1;ratioP1;P1;durP2;ratioP2;P2;SDS_P1;SDS_P2;PMS_P1;PMS_P2;Temp;Humidity;BMP_temperature;BMP_pressure;BME280_temperature;BME280_humidity;BME280_pressure;Samples;Min_cycle;Max_cycle;Signal;HPM_P1;HPM_P2
2023/04/23 00:01:34;;;;;;;5.23;4.73;;;14.70;87.90;;;;;;4886372;29;20453;-68
2023/04/23 00:04:05;;;;;;;7.60;6.50;;;14.70;87.90;;;;;;4887247;29;20578;-69
2023/04/23 00:06:35;;;;;;;4.93;4.43;;;14.70;87.90;;;;;;4884173;29;20478;-69
2023/04/23 00:09:06;;;;;;;6.13;5.20;;;14.70;87.90;;;;;;4880814;29;20483;-69
2023/04/23 00:11:35;;;;;;;5.90;5.30;;;14.70;88.00;;;;;;4886796;29;21007;-68
2023/04/23 00:14:04;;;;;;;6.00;5.30;;;14.70;88.00;;;;;;4879280;29;20485;-68
2023/04/23 00:16:33;;;;;;;6.17;5.60;;;14.70;87.90;;;;;;4910082;29;20804;-68
2023/04/23 00:19:01;;;;;;;5.63;5.03;;;14.70;88.00;;;;;;4884203;29;20490;-68
2023/04/23 00:21:30;;;;;;;5.70;4.83;;;14.70;87.90;;;;;;4871918;29;20470;-69
2023/04/23 00:23:59;;;;;;;5.20;4.33;;;14.70;87.90;;;;;;4855065;29;1157760;-69
2023/04/23 00:26:28;;;;;;;4.47;3.77;;;14.70;87.90;;;;;;4896665;29;20469;-69
2023/04/23 00:28:56;;;;;;;5.03;4.53;;;14.70;87.90;;;;;;4887984;29;20438;-68
2023/04/23 00:31:26;;;;;;;4.30;3.90;;;14.70;87.90;;;;;;4894112;29;21018;-69
2023/04/23 00:33:55;;;;;;;6.07;5.47;;;14.70;87.90;;;;;;4908648;29;20455;-69
2023/04/23 00:36:24;;;;;;;5.63;5.13;;;14.70;88.00;;;;;;4874576;29;21042;-68
2023/04/23 00:38:53;;;;;;;4.80;4.30;;;14.70;87.90;;;;;;4878909;29;20522;-69
2023/04/23 00:41:24;;;;;;;5.80;5.10;;;14.70;87.90;;;;;;4882076;29;20514;-67
2023/04/23 00:43:56;;;;;;;6.00;5.40;;;14.70;88.00;;;;;;4880113;29;20484;-67
2023/04/23 00:46:25;;;;;;;5.77;5.27;;;14.70;87.90;;;;;;4904948;29;20451;-67
2023/04/23 00:48:54;;;;;;;4.80;4.30;;;14.70;88.00;;;;;;4898692;29;20490;-68
2023/04/23 00:51:23;;;;;;;5.33;4.80;;;14.70;87.90;;;;;;4900388;29;20985;-69
2023/04/23 00:53:52;;;;;;;4.37;3.93;;;14.70;87.90;;;;;;4874993;29;20451;-69
2023/04/23 00:56:21;;;;;;;4.67;4.27;;;14.70;87.90;;;;;;4881985;29;20430;-70
2023/04/23 00:58:52;;;;;;;4.50;4.10;;;14.70;87.90;;;;;;4892398;29;20554;-69
2023/04/23 01:01:21;;;;;;;5.73;5.23;;;14.70;87.90;;;;;;4910934;29;20906;-69
2023/04/23 01:03:51;;;;;;;5.17;4.67;;;14.70;87.90;;;;;;4897718;29;20438;-68
2023/04/23 01:06:23;;;;;;;5.53;5.03;;;14.70;88.00;;;;;;4883383;29;20583;-68
2023/04/23 01:08:52;;;;;;;4.70;4.30;;;14.70;87.90;;;;;;4898442;29;20477;-68
2023/04/23 01:11:21;;;;;;;5.70;5.20;;;14.70;87.90;;;;;;4903912;29;20533;-68
2023/04/23 01:13:50;;;;;;;5.33;4.83;;;14.70;87.90;;;;;;4896913;29;20549;-69
2023/04/23 01:16:19;;;;;;;6.10;5.60;;;14.70;88.00;;;;;;4882442;29;20461;-69
2023/04/23 01:18:48;;;;;;;5.53;5.03;;;14.70;88.00;;;;;;4900945;29;21003;-69
2023/04/23 01:21:18;;;;;;;6.60;5.33;;;14.70;87.90;;;;;;4867618;29;20534;-69
2023/04/23 01:23:47;;;;;;;6.10;5.50;;;14.70;88.00;;;;;;4887651;29;20949;-69
2023/04/23 01:26:17;;;;;;;5.03;4.43;;;14.70;87.90;;;;;;4882254;29;20533;-69
2023/04/23 01:28:47;;;;;;;5.30;4.80;;;14.60;87.80;;;;;;4893454;29;20543;-68
2023/04/23 01:31:16;;;;;;;5.90;5.30;;;14.70;87.90;;;;;;4895170;29;20463;-67
2023/04/23 01:33:45;;;;;;;5.00;4.50;;;14.70;87.80;;;;;;4897324;29;20486;-68
2023/04/23 01:36:14;;;;;;;4.17;3.80;;;14.70;87.60;;;;;;4896760;29;20922;-67
2023/04/23 01:38:43;;;;;;;6.97;5.10;;;14.60;87.30;;;;;;4896695;29;20451;-67
2023/04/23 01:41:13;;;;;;;6.07;5.40;;;14.60;87.10;;;;;;4877657;29;21041;-69
2023/04/23 01:43:43;;;;;;;6.27;5.63;;;14.60;87.20;;;;;;4887348;29;20539;-69
2023/04/23 01:46:12;;;;;;;6.40;5.53;;;14.60;87.10;;;;;;4870849;29;20466;-69
2023/04/23 01:48:41;;;;;;;4.93;4.53;;;14.60;86.80;;;;;;4871963;29;20486;-69
2023/04/23 01:51:09;;;;;;;4.80;4.37;;;14.60;86.90;;;;;;4884290;29;20474;-71
2023/04/23 01:53:37;;;;;;;6.43;4.80;;;14.60;86.80;;;;;;4885814;29;20449;-69
2023/04/23 01:56:08;;;;;;;4.20;3.70;;;14.60;86.80;;;;;;4897395;29;20455;-69
2023/04/23 01:58:38;;;;;;;6.17;5.57;;;14.60;86.60;;;;;;4885722;29;20454;-69
2023/04/23 02:01:06;;;;;;;6.20;5.33;;;14.60;86.60;;;;;;4900977;29;21009;-69
2023/04/23 02:03:35;;;;;;;7.93;4.33;;;14.60;86.30;;;;;;4901805;29;21019;-69
2023/04/23 02:06:04;;;;;;;4.20;3.80;;;14.60;86.40;;;;;;4886127;29;20462;-69
2023/04/23 02:08:33;;;;;;;4.40;3.70;;;14.60;86.40;;;;;;4890064;29;20442;-69
2023/04/23 02:11:01;;;;;;;4.17;3.77;;;14.60;86.20;;;;;;4903677;29;20537;-69
2023/04/23 02:13:30;;;;;;;4.70;4.20;;;14.60;86.30;;;;;;4891177;29;20562;-69
2023/04/23 02:16:00;;;;;;;3.90;3.47;;;14.60;86.20;;;;;;4873301;29;20490;-68
2023/04/23 02:18:28;;;;;;;4.60;3.87;;;14.60;86.20;;;;;;4887875;29;20456;-69
2023/04/23 02:20:58;;;;;;;3.53;3.00;;;14.50;85.90;;;;;;4887368;29;20447;-68
2023/04/23 02:23:27;;;;;;;4.57;4.00;;;14.60;86.00;;;;;;4887741;29;20459;-69
2023/04/23 02:25:56;;;;;;;3.97;3.57;;;14.60;86.00;;;;;;4862759;29;20460;-69
2023/04/23 02:28:24;;;;;;;3.87;2.97;;;14.50;85.90;;;;;;4882632;29;20479;-69
2023/04/23 02:30:52;;;;;;;5.10;4.30;;;14.60;85.90;;;;;;4879128;29;20525;-69
2023/04/23 02:33:23;;;;;;;4.67;4.27;;;14.50;85.50;;;;;;4901938;29;20479;-69
2023/04/23 02:35:53;;;;;;;4.10;3.70;;;14.60;85.50;;;;;;4877171;29;20441;-69
2023/04/23 02:38:22;;;;;;;4.93;4.43;;;14.60;85.70;;;;;;4901844;29;20464;-69
2023/04/23 02:40:50;;;;;;;5.40;4.60;;;14.50;85.20;;;;;;4899283;29;20479;-69
2023/04/23 02:43:19;;;;;;;4.60;3.97;;;14.50;85.50;;;;;;4892645;29;21002;-69
2023/04/23 02:45:47;;;;;;;4.27;3.60;;;14.50;85.70;;;;;;4877359;29;20491;-68
2023/04/23 02:48:16;;;;;;;4.40;4.00;;;14.50;85.70;;;;;;4864389;29;20966;-70
2023/04/23 02:50:46;;;;;;;4.70;4.10;;;14.50;85.60;;;;;;4884931;29;20511;-69
2023/04/23 02:53:15;;;;;;;3.40;3.10;;;14.50;85.80;;;;;;4887581;29;20438;-69
2023/04/23 02:55:43;;;;;;;4.77;3.13;;;14.50;85.70;;;;;;4878618;29;20444;-67
2023/04/23 02:58:12;;;;;;;4.60;4.10;;;14.50;85.70;;;;;;4882992;29;20482;-69
2023/04/23 03:00:49;;;;;;;5.73;5.23;;;14.50;85.70;;;;;;4877651;29;20436;-69
2023/04/23 03:03:17;;;;;;;5.73;5.23;;;14.50;85.50;;;;;;4878690;29;20901;-69
2023/04/23 03:05:48;;;;;;;3.97;3.57;;;14.50;85.90;;;;;;4870139;29;20531;-68
2023/04/23 03:08:16;;;;;;;4.90;4.40;;;14.50;86.00;;;;;;4894283;29;20465;-69
2023/04/23 03:10:45;;;;;;;5.53;4.37;;;14.50;86.00;;;;;;4876109;29;21039;-69
2023/04/23 03:13:14;;;;;;;4.73;3.90;;;14.50;85.90;;;;;;4883050;29;20505;-68
2023/04/23 03:15:42;;;;;;;5.57;4.97;;;14.50;86.00;;;;;;4877933;29;20526;-68
2023/04/23 03:18:11;;;;;;;3.93;3.53;;;14.50;85.90;;;;;;4880888;29;20439;-69
2023/04/23 03:20:40;;;;;;;4.13;3.67;;;14.50;86.10;;;;;;4870325;29;20451;-69
2023/04/23 03:23:10;;;;;;;5.40;4.90;;;14.50;86.20;;;;;;4883764;29;20446;-69
2023/04/23 03:25:38;;;;;;;4.90;4.40;;;14.50;86.00;;;;;;4885302;29;20450;-69
2023/04/23 03:28:07;;;;;;;5.47;4.60;;;14.50;86.10;;;;;;4868073;29;20481;-69
2023/04/23 03:30:35;;;;;;;4.13;3.80;;;14.50;86.10;;;;;;4877111;29;20458;-69
2023/04/23 03:33:04;;;;;;;5.40;4.90;;;14.50;86.10;;;;;;4886467;29;20467;-68
2023/04/23 03:35:33;;;;;;;5.53;4.60;;;14.50;85.90;;;;;;4897847;29;20443;-68
2023/04/23 03:38:04;;;;;;;5.13;4.63;;;14.50;87.30;;;;;;4867432;29;20455;-68
2023/04/23 03:40:37;;;;;;;4.70;4.30;;;14.50;86.10;;;;;;4886182;29;20895;-68
2023/04/23 03:43:07;;;;;;;4.50;3.60;;;14.50;86.00;;;;;;4885850;29;20519;-69
2023/04/23 03:45:58;;;;;;;5.37;4.87;;;14.40;86.10;;;;;;4889504;29;20533;-69
2023/04/23 03:48:29;;;;;;;4.60;4.20;;;14.50;86.00;;;;;;4898449;29;20476;-69
2023/04/23 03:50:58;;;;;;;4.40;4.00;;;14.40;86.10;;;;;;4900590;29;20456;-69
2023/04/23 03:53:44;;;;;;;5.23;3.70;;;14.40;86.10;;;;;;4898191;29;20455;-69
2023/04/23 03:56:43;;;;;;;4.13;3.73;;;14.40;86.00;;;;;;4872639;29;21051;-68
2023/04/23 03:59:33;;;;;;;5.47;4.40;;;14.40;86.00;;;;;;4891774;29;20841;-69
2023/04/23 04:02:02;;;;;;;4.77;3.67;;;14.40;86.00;;;;;;4886672;29;20457;-68
2023/04/23 04:04:32;;;;;;;4.90;4.10;;;14.40;86.10;;;;;;4897150;29;20524;-68
2023/04/23 04:07:01;;;;;;;4.73;4.20;;;14.40;86.10;;;;;;4877340;29;20454;-69
2023/04/23 04:09:29;;;;;;;4.27;3.60;;;14.40;86.20;;;;;;4895189;29;20837;-68
2023/04/23 04:12:04;;;;;;;4.97;4.40;;;14.40;86.30;;;;;;4874704;29;20990;-68
2023/04/23 04:14:32;;;;;;;3.80;3.50;;;14.40;86.30;;;;;;4875208;29;20976;-69
2023/04/23 04:17:01;;;;;;;4.17;3.77;;;14.40;86.30;;;;;;4903969;29;20466;-68
2023/04/23 04:19:29;;;;;;;4.90;3.63;;;14.40;86.30;;;;;;4890223;29;20561;-69
2023/04/23 04:22:01;;;;;;;5.13;4.67;;;14.40;86.40;;;;;;4870330;29;20499;-69
2023/04/23 04:24:31;;;;;;;5.93;4.37;;;14.40;86.40;;;;;;4895643;29;20470;-69
2023/04/23 04:27:00;;;;;;;4.90;4.50;;;14.40;86.40;;;;;;4892604;29;20444;-69
2023/04/23 04:29:32;;;;;;;4.00;3.70;;;14.40;86.50;;;;;;4868424;29;20506;-69
2023/04/23 04:32:08;;;;;;;4.40;4.00;;;14.40;86.50;;;;;;4900225;29;20465;-68
2023/04/23 04:34:38;;;;;;;4.60;4.03;;;14.40;86.60;;;;;;4891716;29;20916;-69
2023/04/23 04:37:08;;;;;;;4.73;4.23;;;14.40;86.60;;;;;;4887933;29;20476;-69
2023/04/23 04:39:38;;;;;;;4.23;3.70;;;14.40;86.60;;;;;;4900051;29;20782;-69
2023/04/23 04:42:06;;;;;;;4.50;4.20;;;14.40;86.70;;;;;;4877595;29;20462;-69
2023/04/23 04:44:37;;;;;;;3.80;3.50;;;14.40;86.60;;;;;;4897484;29;20470;-69
2023/04/23 04:47:07;;;;;;;4.60;4.07;;;14.40;86.80;;;;;;4880410;29;20453;-68
2023/04/23 04:49:37;;;;;;;4.10;3.50;;;14.40;86.70;;;;;;4896945;29;20570;-69
2023/04/23 04:52:05;;;;;;;4.90;4.40;;;14.40;86.80;;;;;;4904005;29;20463;-68
2023/04/23 04:54:34;;;;;;;3.83;3.50;;;14.40;86.90;;;;;;4892959;29;20522;-69
2023/04/23 04:57:02;;;;;;;4.10;3.80;;;14.40;86.80;;;;;;4862631;29;20889;-69
2023/04/23 04:59:31;;;;;;;4.23;3.83;;;14.30;86.80;;;;;;4877954;29;20600;-68
2023/04/23 05:02:01;;;;;;;4.30;3.97;;;14.40;88.30;;;;;;4884475;29;20506;-74
2023/04/23 05:04:30;;;;;;;7.03;3.70;;;14.40;87.10;;;;;;4903094;29;20619;-75
2023/04/23 05:06:58;;;;;;;5.70;4.30;;;14.40;87.10;;;;;;4871530;29;20463;-75
2023/04/23 05:09:27;;;;;;;4.13;3.70;;;14.30;87.10;;;;;;4897497;29;20898;-75
2023/04/23 05:11:56;;;;;;;4.73;4.00;;;14.30;87.00;;;;;;4892331;29;20466;-75
2023/04/23 05:14:28;;;;;;;4.23;3.83;;;14.30;87.30;;;;;;4880644;29;20469;-75
2023/04/23 05:16:58;;;;;;;4.83;4.33;;;14.30;87.30;;;;;;4894496;29;20454;-75
2023/04/23 05:19:27;;;;;;;4.70;4.30;;;14.40;87.60;;;;;;4895015;29;20473;-74
2023/04/23 05:21:56;;;;;;;5.30;4.73;;;14.30;87.50;;;;;;4887305;29;20571;-74
2023/04/23 05:24:25;;;;;;;5.00;4.50;;;14.30;87.60;;;;;;4869917;29;20471;-74
2023/04/23 05:26:54;;;;;;;3.90;3.23;;;14.30;87.50;;;;;;4904171;29;20495;-74
2023/04/23 05:29:25;;;;;;;3.73;3.43;;;14.30;87.60;;;;;;4885950;29;20482;-74
2023/04/23 05:31:54;;;;;;;4.30;3.83;;;14.30;87.50;;;;;;4893123;29;20883;-75
2023/04/23 05:34:23;;;;;;;4.60;4.00;;;14.40;87.60;;;;;;4881479;29;20468;-75
2023/04/23 05:36:52;;;;;;;4.40;4.00;;;14.30;87.50;;;;;;4883141;29;20554;-74
2023/04/23 05:39:21;;;;;;;4.10;3.70;;;14.30;87.50;;;;;;4874294;29;20554;-74
2023/04/23 05:41:49;;;;;;;4.20;3.80;;;14.30;87.60;;;;;;4873023;29;20549;-75
2023/04/23 05:44:18;;;;;;;3.73;3.43;;;14.30;87.50;;;;;;4889771;29;20998;-74
2023/04/23 05:46:46;;;;;;;4.00;3.70;;;14.30;87.50;;;;;;4896895;29;20867;-75
2023/04/23 05:49:14;;;;;;;4.30;3.90;;;14.30;87.60;;;;;;4875015;29;20518;-75
2023/04/23 05:51:43;;;;;;;4.27;3.63;;;14.30;87.60;;;;;;4882871;29;20985;-75
2023/04/23 05:54:15;;;;;;;3.70;3.13;;;14.30;87.50;;;;;;4898589;29;20480;-74
2023/04/23 05:56:43;;;;;;;3.73;3.43;;;14.30;87.50;;;;;;4885033;29;20486;-75
2023/04/23 05:59:12;;;;;;;3.90;3.57;;;14.30;87.60;;;;;;4872862;29;21002;-74
2023/04/23 06:01:40;;;;;;;3.80;3.40;;;14.30;87.60;;;;;;4875886;29;20832;-75
2023/04/23 06:04:09;;;;;;;3.97;3.60;;;14.30;87.50;;;;;;4896382;29;20896;-74
2023/04/23 06:06:38;;;;;;;3.80;3.43;;;14.30;87.50;;;;;;4874132;29;21003;-74
2023/04/23 06:09:07;;;;;;;3.83;3.53;;;14.30;87.60;;;;;;4880373;29;20572;-75
2023/04/23 06:11:37;;;;;;;4.30;3.90;;;14.30;87.50;;;;;;4875870;29;20467;-75
2023/04/23 06:14:05;;;;;;;4.47;4.07;;;14.30;87.50;;;;;;4869121;29;20561;-74
2023/04/23 06:16:34;;;;;;;4.70;3.17;;;14.30;87.50;;;;;;4877887;29;20454;-75
2023/04/23 06:19:03;;;;;;;3.67;3.37;;;14.30;87.50;;;;;;4872878;29;20481;-74
2023/04/23 06:21:31;;;;;;;3.53;3.20;;;14.30;87.50;;;;;;4891431;29;21120;-75
2023/04/23 06:24:00;;;;;;;3.83;3.53;;;14.30;87.60;;;;;;4892261;29;20799;-74
2023/04/23 06:26:28;;;;;;;4.03;3.63;;;14.30;87.50;;;;;;4872283;29;20450;-75
2023/04/23 06:29:06;;;;;;;3.50;3.20;;;14.30;87.60;;;;;;4878481;29;20609;-75
2023/04/23 06:32:01;;;;;;;4.00;3.43;;;14.30;87.50;;;;;;4888622;29;20975;-75
2023/04/23 06:34:29;;;;;;;3.53;3.23;;;14.30;87.50;;;;;;4899873;29;20473;-75
2023/04/23 06:36:58;;;;;;;5.37;3.90;;;14.30;87.50;;;;;;4896611;29;20458;-75
2023/04/23 06:39:29;;;;;;;4.67;4.07;;;14.30;87.60;;;;;;4871361;29;20524;-75
2023/04/23 06:41:58;;;;;;;4.30;3.50;;;14.30;87.60;;;;;;4886029;29;20467;-75
2023/04/23 06:44:36;;;;;;;5.90;4.60;;;14.30;87.50;;;;;;4867095;29;20471;-75
2023/04/23 06:47:05;;;;;;;4.03;3.57;;;14.30;87.50;;;;;;4888091;29;20450;-75
2023/04/23 06:49:34;;;;;;;4.90;4.13;;;14.30;87.60;;;;;;4873959;29;20478;-74
2023/04/23 06:52:02;;;;;;;4.00;2.97;;;14.20;87.40;;;;;;4865091;29;20466;-74
2023/04/23 06:54:31;;;;;;;4.10;3.70;;;14.20;87.40;;;;;;4871367;29;20482;-75
2023/04/23 06:57:00;;;;;;;3.73;3.23;;;14.30;87.50;;;;;;4891312;29;20453;-75
2023/04/23 06:59:28;;;;;;;4.17;3.60;;;14.20;87.50;;;;;;4868301;29;20471;-75
2023/04/23 07:02:00;;;;;;;5.20;3.80;;;14.20;87.70;;;;;;4875076;29;21083;-74
2023/04/23 07:04:28;;;;;;;3.50;3.20;;;14.20;88.10;;;;;;4885642;29;21025;-74
2023/04/23 07:06:57;;;;;;;2.93;2.73;;;14.20;87.80;;;;;;4877351;29;20467;-74
2023/04/23 07:09:25;;;;;;;4.60;2.77;;;14.20;87.60;;;;;;4894098;29;21049;-75
2023/04/23 07:11:53;;;;;;;3.70;3.30;;;14.20;87.80;;;;;;4881776;29;20457;-74
2023/04/23 07:14:22;;;;;;;2.50;2.30;;;14.20;87.80;;;;;;4886558;29;20470;-74
2023/04/23 07:16:50;;;;;;;4.00;3.00;;;14.20;88.20;;;;;;4871478;29;20507;-75
2023/04/23 07:19:20;;;;;;;2.80;2.60;;;14.20;87.50;;;;;;4884878;29;20466;-74
2023/04/23 07:21:48;;;;;;;2.73;2.50;;;14.30;87.50;;;;;;4868022;29;20479;-75
2023/04/23 07:24:17;;;;;;;3.67;2.60;;;14.20;87.40;;;;;;4890983;29;20468;-74
2023/04/23 07:26:45;;;;;;;2.83;2.63;;;14.30;87.50;;;;;;4897393;29;21030;-75
2023/04/23 07:29:14;;;;;;;2.97;2.70;;;14.30;87.50;;;;;;4882696;29;20481;-74
2023/04/23 07:31:43;;;;;;;3.80;2.67;;;14.30;87.50;;;;;;4889438;29;20463;-75
2023/04/23 07:34:11;;;;;;;3.20;2.90;;;14.20;87.40;;;;;;4889370;29;20474;-74
2023/04/23 07:36:41;;;;;;;3.10;2.77;;;14.30;87.50;;;;;;4875580;29;20447;-75
2023/04/23 07:39:10;;;;;;;3.37;3.07;;;14.30;87.60;;;;;;4879707;29;20458;-74
2023/04/23 07:41:38;;;;;;;3.07;2.77;;;14.30;87.50;;;;;;4873509;29;20533;-74
2023/04/23 07:44:07;;;;;;;2.73;2.53;;;14.30;87.60;;;;;;4875504;29;20462;-75
2023/04/23 07:46:35;;;;;;;3.93;2.77;;;14.30;87.50;;;;;;4887191;29;20435;-74
2023/04/23 07:49:06;;;;;;;3.23;2.57;;;14.30;87.60;;;;;;4896494;29;20453;-74
2023/04/23 07:51:35;;;;;;;2.60;2.40;;;14.30;87.50;;;;;;4893682;29;21055;-75
2023/04/23 07:54:06;;;;;;;2.43;2.20;;;14.30;87.50;;;;;;4886668;29;20443;-75
2023/04/23 07:56:35;;;;;;;2.63;2.43;;;14.30;87.20;;;;;;4884670;29;20490;-75
2023/04/23 07:59:05;;;;;;;2.90;2.60;;;14.30;87.00;;;;;;4898150;29;20443;-75
2023/04/23 08:01:34;;;;;;;2.30;2.10;;;14.40;86.80;;;;;;4887147;29;20527;-75
2023/04/23 08:04:05;;;;;;;2.80;2.37;;;14.30;86.80;;;;;;4892639;29;20467;-75
2023/04/23 08:06:35;;;;;;;2.30;2.10;;;14.30;86.70;;;;;;4889688;29;20448;-74
2023/04/23 08:09:05;;;;;;;2.30;2.10;;;14.30;86.60;;;;;;4890366;29;20487;-74
2023/04/23 08:11:35;;;;;;;2.87;2.60;;;14.40;87.90;;;;;;4856480;29;20471;-69
2023/04/23 08:14:05;;;;;;;7.07;2.87;;;14.40;86.60;;;;;;4892606;29;20454;-69
2023/04/23 08:16:34;;;;;;;2.77;2.57;;;14.40;86.50;;;;;;4903034;29;20541;-69
2023/04/23 08:19:07;;;;;;;2.30;2.00;;;14.40;86.30;;;;;;4896255;29;20479;-68
2023/04/23 08:21:36;;;;;;;2.90;2.57;;;14.40;86.30;;;;;;4892494;29;20473;-69
2023/04/23 08:24:07;;;;;;;2.20;1.90;;;14.40;86.10;;;;;;4878450;29;20573;-69
2023/04/23 08:26:36;;;;;;;2.30;2.10;;;14.50;86.20;;;;;;4883495;29;20920;-68
2023/04/23 08:29:05;;;;;;;2.70;2.30;;;14.50;86.00;;;;;;4888282;29;20506;-68
2023/04/23 08:31:36;;;;;;;2.50;2.30;;;14.50;85.90;;;;;;4880194;29;20534;-69
2023/04/23 08:34:05;;;;;;;3.80;2.23;;;14.50;85.80;;;;;;4871670;29;20450;-69
2023/04/23 08:36:34;;;;;;;2.33;2.00;;;14.50;85.70;;;;;;4881758;29;20435;-68
2023/04/23 08:39:03;;;;;;;2.77;2.30;;;14.50;85.60;;;;;;4896891;29;20521;-74
2023/04/23 08:41:38;;;;;;;2.30;2.10;;;14.50;85.60;;;;;;4876587;29;21078;-74
2023/04/23 08:44:13;;;;;;;2.67;2.20;;;14.60;85.60;;;;;;4889387;29;20978;-74
2023/04/23 08:46:44;;;;;;;2.90;2.63;;;14.50;85.40;;;;;;4891858;29;20484;-74
2023/04/23 08:49:15;;;;;;;3.00;2.10;;;14.50;85.40;;;;;;4879843;29;21016;-74
2023/04/23 08:51:48;;;;;;;3.53;1.90;;;14.50;85.40;;;;;;4894189;29;20486;-74
2023/04/23 08:54:22;;;;;;;2.23;1.77;;;14.50;85.30;;;;;;4891004;29;20493;-74
2023/04/23 08:56:56;;;;;;;2.70;2.20;;;14.50;85.30;;;;;;4879497;29;20442;-74
2023/04/23 08:59:27;;;;;;;2.23;1.90;;;14.50;85.20;;;;;;4873157;29;20454;-75
2023/04/23 09:01:59;;;;;;;2.67;2.27;;;14.50;85.20;;;;;;4872670;29;20463;-74
2023/04/23 09:04:30;;;;;;;2.67;2.20;;;14.50;85.30;;;;;;4885524;29;20506;-75
2023/04/23 09:06:59;;;;;;;3.13;2.43;;;14.60;85.30;;;;;;4870878;29;20473;-74
2023/04/23 09:09:29;;;;;;;2.30;1.80;;;14.50;85.20;;;;;;4879730;29;20467;-74
2023/04/23 09:12:00;;;;;;;3.10;2.13;;;14.50;85.20;;;;;;4879336;29;20877;-75
2023/04/23 09:14:28;;;;;;;2.93;2.20;;;14.60;85.30;;;;;;4895049;29;20530;-74
2023/04/23 09:16:57;;;;;;;2.30;1.90;;;14.50;85.20;;;;;;4880727;29;20454;-74
2023/04/23 09:19:29;;;;;;;2.47;2.10;;;14.60;85.20;;;;;;4888451;29;20471;-75
2023/04/23 09:21:59;;;;;;;3.90;2.57;;;14.60;85.10;;;;;;4880438;29;20514;-75
2023/04/23 09:24:29;;;;;;;2.23;2.03;;;14.50;85.10;;;;;;4898273;29;20816;-74
2023/04/23 09:27:00;;;;;;;2.17;1.97;;;14.50;85.20;;;;;;4878503;29;20471;-75
2023/04/23 09:29:30;;;;;;;2.50;2.23;;;14.50;85.30;;;;;;4894939;29;20470;-73
2023/04/23 09:32:09;;;;;;;2.40;1.60;;;14.50;85.30;;;;;;4896491;29;20482;-74
2023/04/23 09:34:38;;;;;;;2.80;1.90;;;14.50;85.40;;;;;;4899680;29;20550;-68
2023/04/23 09:37:09;;;;;;;2.73;2.30;;;14.50;85.20;;;;;;4882914;29;21027;-68
2023/04/23 09:39:39;;;;;;;2.17;1.60;;;14.50;85.10;;;;;;4900169;29;20490;-68
2023/04/23 09:42:12;;;;;;;2.30;2.00;;;14.50;85.30;;;;;;4876512;29;20467;-68
2023/04/23 09:44:40;;;;;;;2.23;2.00;;;14.50;85.20;;;;;;4894159;29;20553;-68
2023/04/23 09:47:10;;;;;;;2.87;2.30;;;14.50;85.20;;;;;;4879648;29;20459;-69
2023/04/23 09:49:47;;;;;;;2.80;1.63;;;14.50;85.20;;;;;;4873206;29;20852;-68
2023/04/23 11:25:29;;;;;;;2.67;1.80;;;14.50;83.50;;;;;;5193019;23;20565;-69
2023/04/23 11:28:08;;;;;;;2.43;1.50;;;14.50;83.70;;;;;;4869796;29;20456;-69
2023/04/23 18:55:52;;;;;;;1.47;1.27;;;15.00;86.60;;;;;;5883944;22;6070802;-44
2023/04/23 18:58:21;;;;;;;1.50;1.20;;;15.00;86.60;;;;;;6107279;23;20169;-46
2023/04/23 19:00:51;;;;;;;1.70;1.20;;;15.00;86.80;;;;;;6124000;23;20476;-45
2023/04/23 19:03:20;;;;;;;1.23;1.00;;;15.00;86.40;;;;;;6123750;23;20386;-43
2023/04/23 19:05:55;;;;;;;1.50;1.20;;;15.00;86.50;;;;;;6123821;23;20925;-45
2023/04/23 19:08:27;;;;;;;2.63;0.90;;;15.00;86.60;;;;;;6122883;23;20449;-46
2023/04/23 19:10:58;;;;;;;1.37;1.17;;;15.00;86.50;;;;;;6123594;23;20407;-44
2023/04/23 19:13:26;;;;;;;1.43;1.10;;;15.10;86.50;;;;;;6122438;23;20381;-45
2023/04/23 19:15:55;;;;;;;1.40;0.90;;;15.00;86.60;;;;;;6122960;23;20422;-46
2023/04/23 19:18:24;;;;;;;1.93;1.00;;;15.00;86.00;;;;;;6123947;23;20367;-44
2023/04/23 19:20:53;;;;;;;1.30;1.10;;;15.00;86.10;;;;;;6123403;23;20422;-46
2023/04/23 19:23:22;;;;;;;1.27;0.83;;;15.00;86.00;;;;;;6123185;23;20402;-46
2023/04/23 19:25:50;;;;;;;1.20;0.80;;;15.00;86.00;;;;;;6123340;23;20414;-46
2023/04/23 19:28:23;;;;;;;1.50;1.07;;;15.00;85.70;;;;;;6122266;23;20450;-45
2023/04/23 19:30:52;;;;;;;2.60;0.90;;;15.00;85.70;;;;;;6035752;23;20428;-44
2023/04/23 19:33:22;;;;;;;1.63;1.03;;;15.00;85.60;;;;;;6036132;23;20386;-45
2023/04/23 19:35:51;;;;;;;1.37;0.90;;;15.00;85.70;;;;;;6064607;23;20418;-45
2023/04/23 19:38:20;;;;;;;1.40;0.90;;;15.00;85.50;;;;;;6065488;23;20626;-46
2023/04/23 19:40:49;;;;;;;1.53;0.93;;;15.00;85.30;;;;;;6058504;23;20424;-44
2023/04/23 19:43:18;;;;;;;1.40;1.00;;;15.00;85.00;;;;;;6059081;23;20933;-46
2023/04/23 19:45:48;;;;;;;1.57;1.10;;;15.00;85.30;;;;;;6180304;23;20444;-45
2023/04/23 19:48:17;;;;;;;1.70;1.00;;;15.00;85.20;;;;;;6182848;23;20440;-44
2023/04/23 19:50:47;;;;;;;1.40;0.70;;;15.00;84.90;;;;;;6028618;23;20417;-45
2023/04/23 19:53:15;;;;;;;1.83;1.10;;;15.00;84.90;;;;;;6030291;23;20405;-46
2023/04/23 19:55:44;;;;;;;1.20;0.70;;;15.00;85.00;;;;;;6029631;23;20830;-45
2023/04/23 19:58:17;;;;;;;1.43;1.10;;;15.00;85.20;;;;;;6029510;23;20705;-46
2023/04/23 20:00:46;;;;;;;1.70;1.00;;;15.00;85.00;;;;;;6057514;23;20428;-45
2023/04/23 20:03:16;;;;;;;1.33;0.83;;;15.00;84.90;;;;;;6059257;23;20876;-45
2023/04/23 20:05:45;;;;;;;1.63;0.83;;;15.00;84.60;;;;;;6057316;23;20773;-44
2023/04/23 20:08:24;;;;;;;1.77;0.90;;;15.00;84.70;;;;;;6060061;23;20404;-44
2023/04/23 20:10:53;;;;;;;2.10;0.97;;;15.00;84.50;;;;;;6059204;23;20729;-45
2023/04/23 20:13:22;;;;;;;1.50;1.07;;;15.00;84.20;;;;;;6057979;23;20405;-45
2023/04/23 20:15:52;;;;;;;1.47;0.87;;;15.00;84.20;;;;;;6059374;23;20421;-45
2023/04/23 20:18:24;;;;;;;1.80;1.20;;;15.00;83.90;;;;;;6058994;23;20370;-45
2023/04/23 20:20:53;;;;;;;1.40;0.83;;;15.00;84.00;;;;;;6057481;23;20453;-45
2023/04/23 20:23:22;;;;;;;1.40;1.00;;;15.00;83.90;;;;;;6059418;23;20789;-45
2023/04/23 20:25:51;;;;;;;1.20;0.73;;;15.00;83.90;;;;;;6058902;23;20448;-45
2023/04/23 20:28:19;;;;;;;1.50;0.87;;;15.00;83.70;;;;;;6058034;23;20403;-44
2023/04/23 20:30:49;;;;;;;1.40;0.90;;;15.00;84.00;;;;;;6057289;23;20413;-45
2023/04/23 20:33:18;;;;;;;2.00;1.10;;;15.00;83.50;;;;;;6061064;23;20417;-45
2023/04/23 20:35:49;;;;;;;2.03;1.00;;;15.00;83.50;;;;;;6056953;23;20482;-45
2023/04/23 20:38:19;;;;;;;1.47;0.80;;;15.00;83.30;;;;;;6058859;23;20399;-45
2023/04/23 20:40:48;;;;;;;1.70;0.80;;;15.00;83.30;;;;;;6057366;23;20444;-45
2023/04/23 20:43:17;;;;;;;1.40;0.70;;;15.00;83.50;;;;;;6058224;23;20412;-46
2023/04/23 20:45:46;;;;;;;1.40;0.97;;;15.00;83.00;;;;;;6057750;23;20424;-44
2023/04/23 20:48:15;;;;;;;1.50;1.00;;;15.00;83.00;;;;;;6058545;23;20397;-45
2023/04/23 20:50:44;;;;;;;1.60;1.07;;;15.00;83.10;;;;;;6056567;23;20437;-45
2023/04/23 20:53:14;;;;;;;1.63;0.67;;;15.00;83.10;;;;;;6058333;23;20968;-45
2023/04/23 20:55:42;;;;;;;1.30;0.73;;;15.00;83.20;;;;;;6066898;23;20969;-46
2023/04/23 20:58:11;;;;;;;1.33;0.80;;;15.00;82.90;;;;;;6086960;23;20816;-45
2023/04/23 21:00:40;;;;;;;1.20;0.70;;;15.00;82.60;;;;;;6086024;23;20428;-45
2023/04/23 21:03:08;;;;;;;1.60;0.90;;;15.00;82.50;;;;;;6087266;23;20388;-45
2023/04/23 21:05:39;;;;;;;1.80;1.20;;;15.00;82.80;;;;;;6085296;23;20942;-44
2023/04/23 21:08:08;;;;;;;2.07;0.70;;;15.00;82.40;;;;;;6086834;23;20376;-45
2023/04/23 21:10:39;;;;;;;1.60;0.83;;;15.00;82.00;;;;;;6085866;23;20455;-45
2023/04/23 21:13:11;;;;;;;1.43;0.73;;;15.00;82.80;;;;;;6086671;23;20406;-45
2023/04/23 21:15:40;;;;;;;1.50;0.90;;;15.00;82.10;;;;;;6086284;23;20444;-45
2023/04/23 21:18:10;;;;;;;1.80;1.00;;;15.00;82.30;;;;;;6086960;23;20384;-45
2023/04/23 21:20:39;;;;;;;2.30;1.00;;;15.00;82.40;;;;;;6084871;23;20436;-45
2023/04/23 21:23:11;;;;;;;1.80;0.80;;;15.00;82.10;;;;;;6087674;23;20914;-45
